createdAt,value
2019-06-20T00:00:14.948Z,5.27
2019-06-20T00:02:46.321Z,6.00
2019-06-20T00:05:17.442Z,7.50
2019-06-20T00:07:49.507Z,7.53
2019-06-20T00:10:20.580Z,7.37
2019-06-20T00:13:00.295Z,8.63
2019-06-20T00:15:24.624Z,8.53
2019-06-20T00:17:58.456Z,8.40
2019-06-20T00:20:29.697Z,6.30
2019-06-20T00:23:01.188Z,6.17
2019-06-20T00:25:32.231Z,6.10
2019-06-20T00:28:03.343Z,5.57
2019-06-20T00:30:34.532Z,5.30
2019-06-20T00:33:05.503Z,5.60
2019-06-20T00:35:36.517Z,5.40
2019-06-20T00:38:10.286Z,6.23
2019-06-20T00:40:43.973Z,5.50
2019-06-20T00:43:17.817Z,5.07
2019-06-20T00:45:47.699Z,5.90
2019-06-20T00:48:18.699Z,5.33
2019-06-20T00:50:49.664Z,5.80
2019-06-20T00:53:20.665Z,6.47
2019-06-20T00:55:53.804Z,6.00
2019-06-20T00:58:25.084Z,5.60
2019-06-20T01:00:56.175Z,5.20
2019-06-20T01:03:27.216Z,5.27
2019-06-20T01:05:58.172Z,5.93
2019-06-20T01:08:28.020Z,5.63
2019-06-20T01:10:59.470Z,5.43
2019-06-20T01:13:34.177Z,6.70
2019-06-20T01:16:03.641Z,6.33
2019-06-20T01:18:35.149Z,6.37
2019-06-20T01:21:07.669Z,6.00
2019-06-20T01:23:38.285Z,6.83
2019-06-20T01:26:09.105Z,6.87
2019-06-20T01:28:39.328Z,6.27
2019-06-20T01:31:12.837Z,6.23
2019-06-20T01:33:43.672Z,6.00
2019-06-20T01:36:14.952Z,6.20
2019-06-20T01:38:45.580Z,6.50
2019-06-20T01:41:17.129Z,7.63
2019-06-20T01:43:50.893Z,7.23
2019-06-20T01:46:21.256Z,6.80
2019-06-20T01:48:50.829Z,6.87
2019-06-20T01:51:21.893Z,6.80
2019-06-20T01:53:52.854Z,7.60
2019-06-20T01:56:26.297Z,7.57
2019-06-20T01:58:56.022Z,7.13
2019-06-20T02:01:27.589Z,7.37
2019-06-20T02:03:59.123Z,8.20
2019-06-20T02:06:30.666Z,8.37
2019-06-20T02:09:01.629Z,9.40
2019-06-20T02:11:31.274Z,8.80
2019-06-20T02:14:07.145Z,8.30
2019-06-20T02:20:08.509Z,9.20
2019-06-20T02:22:39.719Z,9.13
2019-06-20T02:25:13.732Z,8.20
2019-06-20T02:27:43.251Z,9.03
2019-06-20T02:30:14.798Z,8.60
2019-06-20T02:32:46.036Z,8.43
2019-06-20T02:36:06.206Z,8.57
2019-06-20T02:38:35.936Z,8.50
2019-06-20T02:41:07.184Z,7.37
2019-06-20T02:43:40.531Z,8.50
2019-06-20T02:46:10.845Z,7.60
2019-06-20T02:48:40.966Z,8.00
2019-06-20T02:51:11.086Z,7.90
2019-06-20T02:53:42.211Z,7.77
2019-06-20T02:56:11.948Z,7.43
2019-06-20T02:58:42.935Z,8.43
2019-06-20T03:01:14.198Z,7.80
2019-06-20T03:03:43.835Z,7.47
2019-06-20T03:06:15.044Z,9.00
2019-06-20T03:08:45.951Z,6.33
2019-06-20T03:11:16.808Z,7.30
2019-06-20T03:13:47.652Z,6.30
2019-06-20T03:16:19.290Z,5.53
2019-06-20T03:18:51.746Z,4.97
2019-06-20T03:21:21.524Z,4.90
2019-06-20T03:23:54.909Z,8.63
2019-06-20T03:26:25.662Z,5.73
2019-06-20T03:28:56.766Z,4.50
2019-06-20T03:31:27.648Z,4.13
2019-06-20T03:33:58.601Z,3.83
2019-06-20T03:36:30.152Z,3.57
2019-06-20T03:39:00.631Z,3.23
2019-06-20T03:41:32.202Z,3.30
2019-06-20T03:44:03.273Z,3.90
2019-06-20T03:46:34.433Z,3.90
2019-06-20T03:49:04.738Z,4.40
2019-06-20T03:51:37.287Z,8.60
2019-06-20T03:54:08.533Z,4.40
2019-06-20T03:56:38.857Z,4.70
2019-06-20T03:59:09.049Z,4.50
2019-06-20T04:01:39.483Z,5.73
2019-06-20T04:04:09.775Z,4.67
2019-06-20T04:06:39.980Z,5.63
2019-06-20T04:09:10.579Z,5.77
2019-06-20T04:11:42.501Z,6.50
2019-06-20T04:14:12.624Z,6.43
2019-06-20T04:16:42.988Z,6.50
2019-06-20T04:19:13.104Z,5.97
2019-06-20T04:21:43.328Z,5.73
2019-06-20T04:24:13.410Z,5.93
2019-06-20T04:26:43.313Z,7.43
2019-06-20T04:29:13.262Z,6.10
2019-06-20T04:31:43.796Z,6.03
2019-06-20T04:34:14.440Z,6.40
2019-06-20T04:36:48.050Z,5.67
2019-06-20T04:39:19.570Z,6.90
2019-06-20T04:41:50.397Z,7.63
2019-06-20T04:44:20.446Z,8.07
2019-06-20T04:46:59.079Z,7.50
2019-06-20T04:49:28.981Z,7.60
2019-06-20T04:51:58.808Z,7.50
2019-06-20T04:54:29.236Z,7.20
2019-06-20T04:56:59.040Z,7.10
2019-06-20T04:59:42.199Z,7.67
2019-06-20T05:02:14.960Z,7.27
2019-06-20T05:04:43.986Z,8.10
2019-06-20T05:07:19.560Z,10.30
2019-06-20T05:09:54.549Z,7.97
2019-06-20T05:12:24.637Z,9.00
2019-06-20T05:14:54.629Z,7.53
2019-06-20T05:18:17.241Z,9.03
2019-06-20T05:20:47.132Z,9.20
2019-06-20T05:23:19.815Z,8.50
2019-06-20T05:25:53.194Z,8.07
2019-06-20T05:28:25.170Z,8.90
2019-06-20T05:30:54.874Z,8.70
2019-06-20T05:33:24.545Z,9.27
2019-06-20T05:35:54.258Z,10.00
2019-06-20T05:38:24.171Z,8.60
2019-06-20T05:40:54.553Z,10.53
2019-06-20T05:43:24.483Z,9.57
2019-06-20T05:46:08.412Z,10.13
2019-06-20T05:48:25.590Z,9.90
2019-06-20T05:50:56.118Z,10.30
2019-06-20T05:53:26.177Z,10.67
2019-06-20T05:55:56.652Z,11.00
2019-06-20T05:58:26.738Z,13.60
2019-06-20T06:00:57.985Z,12.57
2019-06-20T06:03:28.720Z,15.60
2019-06-20T06:05:59.133Z,17.57
2019-06-20T06:08:29.830Z,19.33
2019-06-20T06:10:59.783Z,18.43
2019-06-20T06:13:29.974Z,17.87
2019-06-20T06:16:00.243Z,16.90
2019-06-20T06:18:30.628Z,17.73
2019-06-20T06:21:00.570Z,17.50
2019-06-20T06:23:30.474Z,16.60
2019-06-20T06:26:01.615Z,16.93
2019-06-20T06:29:01.397Z,18.00
2019-06-20T06:31:35.448Z,20.70
2019-06-20T06:34:06.231Z,20.70
2019-06-20T06:36:38.151Z,21.57
2019-06-20T06:39:10.151Z,25.20
2019-06-20T06:41:40.127Z,24.70
2019-06-20T06:44:11.647Z,25.13
2019-06-20T06:46:47.173Z,26.23
2019-06-20T06:49:13.542Z,27.07
2019-06-20T06:51:44.814Z,27.13
2019-06-20T06:54:14.697Z,27.23
2019-06-20T06:56:44.902Z,30.27
2019-06-20T06:59:15.138Z,29.17
2019-06-20T07:01:44.976Z,31.10
2019-06-20T07:04:15.008Z,33.03
2019-06-20T07:06:45.502Z,31.60
2019-06-20T07:09:17.520Z,31.27
2019-06-20T07:11:47.601Z,32.53
2019-06-20T07:14:18.841Z,33.33
2019-06-20T07:16:59.804Z,31.50
2019-06-20T07:19:23.142Z,33.30
2019-06-20T07:21:52.818Z,34.83
2019-06-20T07:24:22.764Z,33.90
2019-06-20T07:26:53.700Z,31.03
2019-06-20T07:29:23.657Z,32.23
2019-06-20T07:31:54.988Z,30.60
2019-06-20T07:34:27.678Z,31.10
2019-06-20T07:36:58.254Z,29.17
2019-06-20T07:39:29.478Z,30.63
2019-06-20T07:42:01.735Z,30.60
2019-06-20T07:44:31.970Z,29.33
2019-06-20T07:47:16.587Z,32.10
2019-06-20T07:49:34.968Z,32.27
2019-06-20T07:52:07.827Z,32.70
2019-06-20T07:54:38.247Z,31.50
2019-06-20T07:57:08.535Z,29.93
2019-06-20T07:59:38.511Z,28.77
2019-06-20T08:02:09.708Z,30.33
2019-06-20T08:04:40.565Z,28.23
2019-06-20T08:07:10.782Z,27.57
2019-06-20T08:09:45.183Z,25.17
2019-06-20T08:12:12.517Z,23.37
2019-06-20T08:14:42.589Z,21.60
2019-06-20T08:17:12.244Z,19.90
2019-06-20T08:19:42.465Z,18.77
2019-06-20T08:22:12.717Z,19.67
2019-06-20T08:24:42.272Z,17.87
2019-06-20T08:27:14.860Z,19.50
2019-06-20T08:29:44.243Z,18.13
2019-06-20T08:32:14.207Z,18.70
2019-06-20T08:34:44.591Z,20.17
2019-06-20T08:37:24.032Z,21.37
2019-06-20T08:39:54.012Z,20.30
2019-06-20T08:42:24.451Z,21.27
2019-06-20T08:44:56.249Z,22.33
2019-06-20T08:47:26.222Z,20.70
2019-06-20T08:49:58.153Z,19.97
2019-06-20T08:52:29.083Z,20.90
2019-06-20T08:55:01.012Z,20.00
2019-06-20T08:57:31.474Z,19.90
2019-06-20T09:02:32.534Z,18.17
2019-06-20T09:07:36.955Z,20.70
2019-06-20T09:10:07.682Z,18.00
2019-06-20T09:12:37.641Z,18.70
2019-06-20T09:15:10.742Z,20.33
2019-06-20T09:17:43.375Z,19.27
2019-06-20T09:20:14.209Z,18.13
2019-06-20T09:22:45.089Z,17.80
2019-06-20T09:25:15.934Z,18.57
2019-06-20T09:27:46.392Z,18.33
2019-06-20T09:30:16.735Z,19.43
2019-06-20T09:32:47.613Z,20.27
2019-06-20T09:35:18.099Z,18.60
2019-06-20T09:37:51.930Z,17.63
2019-06-20T09:40:25.646Z,20.63
2019-06-20T09:42:56.447Z,19.50
2019-06-20T09:45:28.483Z,19.73
2019-06-20T09:47:58.434Z,22.63
2019-06-20T09:50:29.859Z,21.40
2019-06-20T09:52:59.649Z,20.20
2019-06-20T09:55:30.283Z,20.63
2019-06-20T09:58:00.845Z,20.90
2019-06-20T10:00:32.253Z,20.50
2019-06-20T10:03:02.329Z,22.80
2019-06-20T10:05:32.475Z,20.83
2019-06-20T10:08:02.806Z,21.53
2019-06-20T10:10:50.358Z,21.83
2019-06-20T10:13:22.594Z,19.27
2019-06-20T10:15:53.473Z,21.47
2019-06-20T10:18:23.792Z,21.27
2019-06-20T10:21:00.835Z,22.63
2019-06-20T10:23:31.167Z,22.47
2019-06-20T10:26:01.285Z,20.90
2019-06-20T10:28:32.393Z,23.73
2019-06-20T10:31:02.340Z,24.07
2019-06-20T10:33:32.831Z,22.50
2019-06-20T10:36:11.513Z,20.77
2019-06-20T10:38:43.672Z,20.93
2019-06-20T10:41:14.242Z,17.83
2019-06-20T10:43:45.738Z,15.60
2019-06-20T10:46:15.829Z,15.17
2019-06-20T10:48:48.155Z,15.83
2019-06-20T10:51:34.061Z,15.50
2019-06-20T10:54:03.873Z,16.13
2019-06-20T10:56:33.633Z,10.23
2019-06-20T10:59:04.928Z,9.80
2019-06-20T11:01:36.370Z,9.37
2019-06-20T11:04:31.957Z,9.17
2019-06-20T11:07:02.254Z,8.57
2019-06-20T11:09:33.562Z,8.80
2019-06-20T11:12:04.265Z,8.70
2019-06-20T11:14:35.401Z,8.57
2019-06-20T11:17:05.437Z,7.80
2019-06-20T11:19:38.137Z,7.80
2019-06-20T11:22:07.328Z,8.67
2019-06-20T11:24:38.878Z,9.00
2019-06-20T11:27:08.371Z,9.50
2019-06-20T11:29:38.601Z,9.27
2019-06-20T11:32:08.650Z,8.80
2019-06-20T11:34:42.336Z,13.43
2019-06-20T11:37:14.766Z,8.40
2019-06-20T11:39:47.418Z,8.37
2019-06-20T11:42:17.558Z,7.77
2019-06-20T11:44:47.601Z,8.53
2019-06-20T11:47:20.514Z,8.30
2019-06-20T11:49:49.509Z,7.20
2019-06-20T11:52:19.934Z,7.50
2019-06-20T11:54:50.488Z,8.07
2019-06-20T11:57:23.116Z,8.37
2019-06-20T11:59:57.966Z,7.83
2019-06-20T12:02:27.687Z,8.83
2019-06-20T12:04:59.874Z,8.93
2019-06-20T12:07:30.100Z,9.30
2019-06-20T12:10:01.118Z,10.93
2019-06-20T12:12:31.493Z,9.77
2019-06-20T12:15:01.680Z,9.77
2019-06-20T12:17:32.195Z,10.87
2019-06-20T12:20:04.361Z,10.70
2019-06-20T12:22:34.622Z,9.90
2019-06-20T12:25:12.059Z,10.70
2019-06-20T12:27:45.385Z,16.67
2019-06-20T12:30:16.315Z,10.43
2019-06-20T12:32:49.753Z,11.13
2019-06-20T12:35:24.491Z,11.20
2019-06-20T12:37:54.311Z,9.93
2019-06-20T12:40:27.127Z,10.43
2019-06-20T12:42:58.441Z,9.97
2019-06-20T12:45:28.651Z,8.07
2019-06-20T12:47:58.513Z,7.43
2019-06-20T12:50:30.755Z,7.90
2019-06-20T12:53:00.521Z,6.67
2019-06-20T12:55:30.252Z,7.57
2019-06-20T12:58:01.173Z,8.30
2019-06-20T13:00:31.751Z,8.30
2019-06-20T13:03:01.412Z,6.93
2019-06-20T13:05:44.894Z,8.73
2019-06-20T13:08:15.410Z,8.23
2019-06-20T13:10:48.309Z,8.07
2019-06-20T13:13:21.052Z,7.43
2019-06-20T13:15:50.863Z,7.70
2019-06-20T13:18:21.929Z,8.30
2019-06-20T13:20:51.837Z,8.47
2019-06-20T13:23:21.785Z,8.33
2019-06-20T13:29:03.723Z,8.80
2019-06-20T13:31:26.874Z,7.87
2019-06-20T13:33:56.808Z,8.30
2019-06-20T13:36:26.742Z,8.93
2019-06-20T13:38:58.988Z,7.97
2019-06-20T13:41:28.931Z,7.30
2019-06-20T13:43:59.513Z,7.70
2019-06-20T13:46:29.797Z,7.90
2019-06-20T13:49:01.613Z,8.03
2019-06-20T13:51:32.344Z,10.00
2019-06-20T13:54:02.211Z,8.50
2019-06-20T13:56:32.418Z,8.00
2019-06-20T13:59:02.355Z,8.77
2019-06-20T14:01:32.383Z,9.00
2019-06-20T14:04:03.228Z,9.33
2019-06-20T14:06:34.103Z,9.33
2019-06-20T14:09:05.482Z,9.33
2019-06-20T14:11:35.355Z,9.20
2019-06-20T14:14:05.526Z,8.60
2019-06-20T14:16:36.517Z,7.63
2019-06-20T14:19:06.349Z,6.67
2019-06-20T14:21:37.092Z,7.00
2019-06-20T14:24:07.048Z,5.77
2019-06-20T14:26:37.086Z,6.40
2019-06-20T14:29:07.149Z,6.70
2019-06-20T14:31:38.389Z,6.90
2019-06-20T14:34:08.394Z,7.77
2019-06-20T14:36:38.766Z,6.33
2019-06-20T14:39:08.993Z,6.63
2019-06-20T14:41:39.496Z,7.40
2019-06-20T14:44:10.397Z,9.33
2019-06-20T14:46:40.802Z,9.30
2019-06-20T14:49:10.990Z,7.50
2019-06-20T14:51:41.261Z,7.80
2019-06-20T14:54:12.515Z,6.90
2019-06-20T14:56:44.467Z,6.10
2019-06-20T14:59:14.518Z,6.17
2019-06-20T15:01:48.015Z,7.33
2019-06-20T15:04:17.809Z,6.77
2019-06-20T15:06:48.421Z,6.20
2019-06-20T15:09:19.083Z,6.93
2019-06-20T15:11:49.710Z,6.80
2019-06-20T15:14:22.709Z,7.03
2019-06-20T15:16:53.923Z,7.10
2019-06-20T15:19:23.704Z,7.53
2019-06-20T15:21:56.536Z,8.87
2019-06-20T15:24:26.899Z,9.87
2019-06-20T15:26:57.037Z,10.63
2019-06-20T15:29:27.544Z,11.03
2019-06-20T15:31:59.839Z,10.90
2019-06-20T15:34:32.667Z,10.30
2019-06-20T15:37:05.656Z,10.33
2019-06-20T15:39:35.655Z,10.97
2019-06-20T15:42:06.036Z,10.63
2019-06-20T15:44:36.249Z,10.63
2019-06-20T15:47:06.462Z,10.63
2019-06-20T15:49:41.012Z,10.93
2019-06-20T15:52:12.467Z,9.40
2019-06-20T15:54:47.850Z,8.40
2019-06-20T15:57:20.779Z,8.17
2019-06-20T15:59:52.512Z,10.37
2019-06-20T16:02:26.405Z,6.27
2019-06-20T16:04:59.264Z,6.73
2019-06-20T16:07:29.047Z,9.07
2019-06-20T16:10:11.546Z,8.23
2019-06-20T16:12:48.059Z,5.77
2019-06-20T16:15:26.760Z,3.20
2019-06-20T16:17:56.702Z,4.10
2019-06-20T16:20:26.796Z,4.20
2019-06-20T16:22:56.602Z,4.10
2019-06-20T16:25:26.682Z,4.23
2019-06-20T16:27:57.388Z,4.63
2019-06-20T16:30:33.570Z,4.73
2019-06-20T16:33:04.447Z,4.13
2019-06-20T16:35:39.772Z,4.23
2019-06-20T16:38:09.645Z,4.63
2019-06-20T16:40:45.501Z,4.40
2019-06-20T16:43:16.673Z,4.47
2019-06-20T16:45:49.870Z,3.93
2019-06-20T16:48:19.864Z,4.07
2019-06-20T16:50:49.830Z,3.83
2019-06-20T16:53:20.084Z,3.50
2019-06-20T16:55:49.817Z,4.03
2019-06-20T16:58:19.583Z,3.23
2019-06-20T17:00:49.741Z,3.90
2019-06-20T17:03:19.871Z,3.37
2019-06-20T17:05:49.518Z,5.03
2019-06-20T17:08:19.257Z,5.50
2019-06-20T17:10:49.619Z,5.37
2019-06-20T17:13:19.782Z,5.83
2019-06-20T17:15:50.448Z,3.77
2019-06-20T17:18:20.917Z,3.00
2019-06-20T17:20:52.647Z,3.37
2019-06-20T17:23:26.993Z,5.27
2019-06-20T17:25:56.985Z,3.53
2019-06-20T17:28:27.749Z,4.33
2019-06-20T17:30:57.411Z,4.80
2019-06-20T17:33:29.444Z,4.33
2019-06-20T17:35:59.146Z,4.00
2019-06-20T17:38:28.799Z,5.10
2019-06-20T17:41:00.871Z,4.83
2019-06-20T17:43:30.899Z,4.40
2019-06-20T17:46:01.049Z,4.63
2019-06-20T17:48:33.181Z,5.90
2019-06-20T17:51:02.861Z,5.50
2019-06-20T17:53:32.748Z,5.53
2019-06-20T17:56:02.705Z,5.30
2019-06-20T17:58:32.435Z,5.87
2019-06-20T18:01:03.720Z,5.27
2019-06-20T18:03:33.581Z,6.10
2019-06-20T18:06:03.534Z,5.50
2019-06-20T18:08:33.541Z,6.20
2019-06-20T18:11:03.435Z,6.47
2019-06-20T18:13:33.094Z,6.40
2019-06-20T18:16:05.966Z,7.07
2019-06-20T18:18:35.861Z,6.93
2019-06-20T18:21:05.861Z,6.20
2019-06-20T18:23:36.550Z,7.50
2019-06-20T18:26:06.453Z,6.97
2019-06-20T18:28:36.544Z,7.00
2019-06-20T18:31:08.958Z,7.40
2019-06-20T18:33:38.877Z,9.03
2019-06-20T18:36:10.530Z,8.20
2019-06-20T18:38:40.555Z,8.27
2019-06-20T18:41:12.549Z,8.20
2019-06-20T18:43:42.914Z,8.30
2019-06-20T18:46:12.656Z,11.87
2019-06-20T18:48:42.806Z,10.40
2019-06-20T18:51:12.762Z,8.43
2019-06-20T18:53:46.348Z,8.20
2019-06-20T18:56:16.259Z,9.00
2019-06-20T18:58:45.945Z,8.40
2019-06-20T19:01:17.663Z,8.33
2019-06-20T19:03:48.737Z,8.47
2019-06-20T19:06:18.429Z,9.37
2019-06-20T19:08:48.599Z,8.67
2019-06-20T19:11:18.723Z,8.63
2019-06-20T19:13:50.371Z,8.80
2019-06-20T19:16:20.074Z,8.30
2019-06-20T19:18:53.467Z,8.63
2019-06-20T19:21:22.901Z,9.47
2019-06-20T19:23:55.557Z,9.10
2019-06-20T19:26:25.687Z,8.73
2019-06-20T19:28:56.485Z,7.80
2019-06-20T19:31:26.456Z,9.57
2019-06-20T19:33:57.195Z,8.93
2019-06-20T19:36:27.509Z,10.07
2019-06-20T19:38:59.777Z,10.40
2019-06-20T19:41:30.660Z,10.40
2019-06-20T19:44:01.822Z,9.83
2019-06-20T19:46:31.561Z,9.83
2019-06-20T19:49:03.377Z,11.33
2019-06-20T19:51:35.665Z,10.70
2019-06-20T19:54:05.593Z,10.73
2019-06-20T19:56:35.593Z,8.73
2019-06-20T19:59:05.917Z,10.67
2019-06-20T20:01:37.062Z,12.03
2019-06-20T20:04:09.202Z,9.53
2019-06-20T20:06:39.743Z,11.60
2019-06-20T20:09:09.773Z,11.63
2019-06-20T20:11:40.477Z,12.17
2019-06-20T20:14:10.663Z,11.13
2019-06-20T20:16:41.030Z,12.30
2019-06-20T20:19:11.936Z,11.80
2019-06-20T20:21:43.207Z,13.50
2019-06-20T20:24:13.514Z,13.43
2019-06-20T20:26:43.970Z,12.27
2019-06-20T20:29:14.140Z,12.93
2019-06-20T20:31:44.702Z,13.97
2019-06-20T20:34:14.986Z,15.17
2019-06-20T20:36:45.409Z,15.30
2019-06-20T20:39:20.161Z,16.47
2019-06-20T20:41:51.280Z,16.17
2019-06-20T20:44:23.985Z,16.67
2019-06-20T20:46:55.973Z,19.27
2019-06-20T20:49:27.181Z,18.57
2019-06-20T20:51:59.924Z,18.40
2019-06-20T20:54:33.479Z,18.57
2019-06-20T20:57:03.995Z,18.60
2019-06-20T20:59:35.135Z,18.77
2019-06-20T21:02:06.349Z,19.47
2019-06-20T21:04:37.449Z,17.77
2019-06-20T21:07:10.296Z,18.67
2019-06-20T21:09:42.337Z,18.00
2019-06-20T21:12:12.145Z,23.50
2019-06-20T21:14:44.196Z,20.63
2019-06-20T21:17:18.639Z,19.90
2019-06-20T21:19:51.636Z,20.23
2019-06-20T21:22:21.558Z,18.73
2019-06-20T21:24:52.012Z,17.73
2019-06-20T21:27:24.363Z,18.20
2019-06-20T21:29:54.190Z,17.60
2019-06-20T21:32:23.793Z,20.40
2019-06-20T21:34:53.686Z,16.93
2019-06-20T21:37:24.491Z,17.57
2019-06-20T21:39:54.380Z,21.53
2019-06-20T21:42:24.057Z,15.57
2019-06-20T21:44:54.104Z,17.30
2019-06-20T21:47:24.298Z,17.37
2019-06-20T21:49:54.190Z,16.23
2019-06-20T21:52:26.000Z,15.23
2019-06-20T21:54:55.656Z,14.93
2019-06-20T21:57:27.260Z,18.37
2019-06-20T21:59:59.589Z,14.17
2019-06-20T22:02:29.359Z,14.77
2019-06-20T22:04:59.242Z,15.17
2019-06-20T22:07:29.462Z,13.13
2019-06-20T22:09:59.472Z,14.37
2019-06-20T22:12:29.453Z,15.60
2019-06-20T22:14:59.287Z,14.73
2019-06-20T22:17:29.157Z,13.90
2019-06-20T22:20:01.386Z,14.63
2019-06-20T22:22:32.564Z,14.50
2019-06-20T22:25:02.752Z,13.90
2019-06-20T22:27:32.489Z,13.17
2019-06-20T22:30:04.326Z,11.93
2019-06-20T22:32:34.414Z,11.80
2019-06-20T22:35:04.689Z,12.47
2019-06-20T22:37:34.858Z,11.17
2019-06-20T22:40:05.172Z,11.43
2019-06-20T22:42:36.490Z,11.53
2019-06-20T22:45:07.175Z,10.77
2019-06-20T22:47:37.132Z,11.37
2019-06-20T22:50:07.194Z,12.07
2019-06-20T22:52:38.458Z,10.63
2019-06-20T22:55:08.849Z,11.13
2019-06-20T22:57:38.737Z,8.67
2019-06-20T23:00:10.161Z,8.13
2019-06-20T23:02:40.546Z,8.87
2019-06-20T23:05:12.489Z,8.43
2019-06-20T23:07:42.495Z,8.37
2019-06-20T23:10:15.729Z,6.97
2019-06-20T23:12:45.385Z,7.67
2019-06-20T23:15:17.245Z,5.80
2019-06-20T23:17:49.321Z,7.63
2019-06-20T23:20:20.420Z,5.53
2019-06-20T23:22:50.405Z,6.33
2019-06-20T23:25:20.370Z,6.30
2019-06-20T23:27:50.099Z,7.63
2019-06-20T23:30:22.463Z,5.80
2019-06-20T23:32:53.433Z,5.13
2019-06-20T23:35:23.133Z,5.10
2019-06-20T23:37:52.928Z,6.30
2019-06-20T23:40:23.622Z,6.43
2019-06-20T23:42:53.909Z,5.10
2019-06-20T23:45:23.584Z,5.83
2019-06-20T23:47:53.357Z,5.00
2019-06-20T23:50:25.545Z,6.40
2019-06-20T23:53:10.384Z,5.37
2019-06-20T23:55:41.081Z,5.30
2019-06-20T23:58:11.111Z,5.40
